createdAt,value
2023-06-21T00:00:01.768Z,21.00
2023-06-21T00:02:29.607Z,21.10
2023-06-21T00:06:11.993Z,21.10
2023-06-21T00:08:39.726Z,21.00
2023-06-21T00:11:06.617Z,21.00
2023-06-21T00:13:33.527Z,21.00
2023-06-21T00:16:00.458Z,21.00
2023-06-21T00:18:27.454Z,20.80
2023-06-21T00:20:54.355Z,20.80
2023-06-21T00:23:21.217Z,20.80
2023-06-21T00:25:48.111Z,20.70
2023-06-21T00:28:15.074Z,20.70
2023-06-21T00:30:41.979Z,20.70
2023-06-21T00:33:08.931Z,20.70
2023-06-21T00:35:35.850Z,20.60
2023-06-21T00:38:02.714Z,20.60
2023-06-21T00:40:35.127Z,20.60
2023-06-21T00:43:05.004Z,20.60
2023-06-21T00:45:40.313Z,20.60
2023-06-21T00:48:08.428Z,20.70
2023-06-21T00:50:35.599Z,20.70
2023-06-21T00:53:02.570Z,20.70
2023-06-21T00:55:29.541Z,20.70
2023-06-21T00:57:58.375Z,20.70
2023-06-21T01:00:26.802Z,20.70
2023-06-21T01:03:00.261Z,20.70
2023-06-21T01:05:35.635Z,20.70
2023-06-21T01:08:36.172Z,20.60
2023-06-21T01:11:03.403Z,20.60
2023-06-21T01:13:46.235Z,20.60
2023-06-21T01:16:16.510Z,20.60
2023-06-21T01:18:47.660Z,20.50
2023-06-21T01:21:19.817Z,20.50
2023-06-21T01:24:14.952Z,20.50
2023-06-21T01:27:17.677Z,20.50
2023-06-21T01:29:48.932Z,20.40
2023-06-21T01:32:18.338Z,20.40
2023-06-21T01:34:46.286Z,20.40
2023-06-21T01:37:13.187Z,20.30
2023-06-21T01:39:40.153Z,20.30
2023-06-21T01:42:07.582Z,20.30
2023-06-21T01:44:34.981Z,20.20
2023-06-21T01:47:02.632Z,20.10
2023-06-21T01:49:31.693Z,20.10
2023-06-21T01:51:59.905Z,20.10
2023-06-21T01:54:28.359Z,20.00
2023-06-21T01:57:00.828Z,20.10
2023-06-21T01:59:30.154Z,20.10
2023-06-21T02:02:02.404Z,20.10
2023-06-21T02:04:31.410Z,20.10
2023-06-21T02:06:59.819Z,20.10
2023-06-21T02:09:27.301Z,20.00
2023-06-21T02:11:54.525Z,19.90
2023-06-21T02:14:21.855Z,19.90
2023-06-21T02:16:49.434Z,19.90
2023-06-21T02:19:16.373Z,19.70
2023-06-21T02:21:43.303Z,19.70
2023-06-21T02:24:10.248Z,19.70
2023-06-21T02:26:37.189Z,19.70
2023-06-21T02:29:04.065Z,19.70
2023-06-21T02:31:34.095Z,19.70
2023-06-21T02:34:01.318Z,19.70
2023-06-21T02:36:28.382Z,19.60
2023-06-21T02:38:56.608Z,19.60
2023-06-21T02:41:23.639Z,19.50
2023-06-21T02:43:50.814Z,19.60
2023-06-21T02:46:18.921Z,19.50
2023-06-21T02:48:45.832Z,19.50
2023-06-21T02:51:12.707Z,19.40
2023-06-21T02:53:39.635Z,19.40
2023-06-21T02:56:07.081Z,19.30
2023-06-21T02:58:34.248Z,19.20
2023-06-21T03:01:01.157Z,19.20
2023-06-21T03:03:28.960Z,19.10
2023-06-21T03:05:56.341Z,19.00
2023-06-21T03:08:23.270Z,18.90
2023-06-21T03:10:50.164Z,18.90
2023-06-21T03:13:17.084Z,18.90
2023-06-21T03:15:44.017Z,18.90
2023-06-21T03:18:11.049Z,19.00
2023-06-21T03:20:38.132Z,18.90
2023-06-21T03:23:05.084Z,18.90
2023-06-21T03:25:31.968Z,18.80
2023-06-21T03:28:00.572Z,18.80
2023-06-21T03:32:54.751Z,18.80
2023-06-21T03:35:21.826Z,18.80
2023-06-21T03:37:48.949Z,18.80
2023-06-21T03:40:15.914Z,18.80
2023-06-21T03:42:44.469Z,18.80
2023-06-21T03:45:12.137Z,18.70
2023-06-21T03:47:41.272Z,18.80
2023-06-21T03:50:09.952Z,18.80
2023-06-21T03:52:37.535Z,18.80
2023-06-21T03:55:06.053Z,18.80
2023-06-21T03:57:33.196Z,18.80
2023-06-21T04:00:00.226Z,18.90
2023-06-21T04:02:27.223Z,18.90
2023-06-21T04:04:54.141Z,18.90
2023-06-21T04:07:23.244Z,19.00
2023-06-21T04:09:50.750Z,19.00
2023-06-21T04:12:17.705Z,18.90
2023-06-21T04:14:44.610Z,18.90
2023-06-21T04:17:11.530Z,19.00
2023-06-21T04:19:38.430Z,19.00
2023-06-21T04:22:05.768Z,19.00
2023-06-21T04:24:32.860Z,19.00
2023-06-21T04:27:00.040Z,19.00
2023-06-21T04:29:27.456Z,19.10
2023-06-21T04:31:54.542Z,19.10
2023-06-21T04:34:21.574Z,19.10
2023-06-21T04:36:49.183Z,19.10
2023-06-21T04:39:19.265Z,19.10
2023-06-21T04:41:47.418Z,19.10
2023-06-21T04:44:18.473Z,19.20
2023-06-21T04:46:49.065Z,19.20
2023-06-21T04:49:17.031Z,19.30
2023-06-21T04:51:44.632Z,19.30
2023-06-21T04:54:11.632Z,19.40
2023-06-21T04:56:38.666Z,19.50
2023-06-21T04:59:05.633Z,19.70
2023-06-21T05:01:33.784Z,19.90
2023-06-21T05:04:00.832Z,20.00
2023-06-21T05:06:27.737Z,20.10
2023-06-21T05:08:54.790Z,20.20
2023-06-21T05:11:21.758Z,20.40
2023-06-21T05:13:48.668Z,20.50
2023-06-21T05:16:15.582Z,20.70
2023-06-21T05:18:43.460Z,20.70
2023-06-21T05:21:10.561Z,20.70
2023-06-21T05:23:37.463Z,20.90
2023-06-21T05:26:05.381Z,20.90
2023-06-21T05:28:32.462Z,21.00
2023-06-21T05:30:59.557Z,21.20
2023-06-21T05:33:26.449Z,21.20
2023-06-21T05:35:53.361Z,21.40
2023-06-21T05:38:20.262Z,21.60
2023-06-21T05:40:47.279Z,21.70
2023-06-21T05:43:14.176Z,21.90
2023-06-21T05:45:41.074Z,22.10
2023-06-21T05:48:08.027Z,22.10
2023-06-21T05:50:34.957Z,22.30
2023-06-21T05:53:01.892Z,22.50
2023-06-21T05:55:28.767Z,22.70
2023-06-21T05:57:55.731Z,22.80
2023-06-21T06:00:22.761Z,23.00
2023-06-21T06:02:49.721Z,23.30
2023-06-21T06:05:17.500Z,23.50
2023-06-21T06:07:44.501Z,23.80
2023-06-21T06:10:11.428Z,24.20
2023-06-21T06:12:38.464Z,24.40
2023-06-21T06:15:06.494Z,24.80
2023-06-21T06:17:33.397Z,25.00
2023-06-21T06:20:05.660Z,25.30
2023-06-21T06:22:36.668Z,25.60
2023-06-21T06:25:04.629Z,25.70
2023-06-21T06:27:31.536Z,25.80
2023-06-21T06:29:59.050Z,26.00
2023-06-21T06:32:28.414Z,26.30
2023-06-21T06:34:55.725Z,26.60
2023-06-21T06:37:30.610Z,26.80
2023-06-21T06:39:59.556Z,26.70
2023-06-21T06:42:26.543Z,27.00
2023-06-21T06:44:54.258Z,27.30
2023-06-21T06:47:21.328Z,27.60
2023-06-21T06:49:48.237Z,28.00
2023-06-21T06:52:15.134Z,28.20
2023-06-21T06:54:42.076Z,28.50
2023-06-21T06:57:15.855Z,28.60
2023-06-21T06:59:50.330Z,28.50
2023-06-21T07:02:17.462Z,28.50
2023-06-21T07:04:44.374Z,28.10
2023-06-21T07:07:11.321Z,28.30
2023-06-21T07:09:39.040Z,29.00
2023-06-21T07:12:06.860Z,29.10
2023-06-21T07:14:33.739Z,29.30
2023-06-21T07:17:00.742Z,28.70
2023-06-21T07:19:27.601Z,28.50
2023-06-21T07:21:54.508Z,28.30
2023-06-21T07:24:21.471Z,28.20
2023-06-21T07:26:48.476Z,28.20
2023-06-21T07:29:15.466Z,28.40
2023-06-21T07:31:42.384Z,28.40
2023-06-21T07:34:10.730Z,28.70
2023-06-21T07:36:39.967Z,28.80
2023-06-21T07:39:09.357Z,29.00
2023-06-21T07:41:36.488Z,29.20
2023-06-21T07:44:03.661Z,29.20
2023-06-21T07:46:30.717Z,29.50
2023-06-21T07:48:57.590Z,29.50
2023-06-21T07:51:24.495Z,28.90
2023-06-21T07:53:51.364Z,29.10
2023-06-21T07:56:18.360Z,29.40
2023-06-21T07:58:45.389Z,29.50
2023-06-21T08:01:13.480Z,29.50
2023-06-21T08:03:41.588Z,29.30
2023-06-21T08:06:08.660Z,29.20
2023-06-21T08:08:35.546Z,29.30
2023-06-21T08:11:02.516Z,29.40
2023-06-21T08:13:30.550Z,29.40
2023-06-21T08:15:57.532Z,29.40
2023-06-21T08:18:24.394Z,29.00
2023-06-21T08:20:51.290Z,28.80
2023-06-21T08:23:18.181Z,28.90
2023-06-21T08:25:46.866Z,29.10
2023-06-21T08:28:13.886Z,29.10
2023-06-21T08:30:40.754Z,29.40
2023-06-21T08:33:07.690Z,29.60
2023-06-21T08:35:34.659Z,29.60
2023-06-21T08:38:11.743Z,29.80
2023-06-21T08:40:48.419Z,30.00
2023-06-21T08:43:15.451Z,29.80
2023-06-21T08:45:42.956Z,29.60
2023-06-21T08:48:10.839Z,29.80
2023-06-21T08:50:39.242Z,29.50
2023-06-21T08:53:08.421Z,30.20
2023-06-21T08:55:37.300Z,30.70
2023-06-21T08:58:17.409Z,31.20
2023-06-21T09:00:52.771Z,31.60
2023-06-21T09:03:29.681Z,31.50
2023-06-21T09:06:04.466Z,31.60
2023-06-21T09:08:35.761Z,31.30
2023-06-21T09:11:03.760Z,31.50
2023-06-21T09:13:35.375Z,31.00
2023-06-21T09:16:04.195Z,31.30
2023-06-21T09:18:37.205Z,31.50
2023-06-21T09:21:05.814Z,30.90
2023-06-21T09:23:32.803Z,30.60
2023-06-21T09:25:59.782Z,30.70
2023-06-21T09:28:26.857Z,30.30
2023-06-21T09:30:53.790Z,30.10
2023-06-21T09:33:20.936Z,30.50
2023-06-21T09:35:47.983Z,31.10
2023-06-21T09:38:29.501Z,31.00
2023-06-21T09:40:56.821Z,30.50
2023-06-21T09:43:24.190Z,30.90
2023-06-21T09:46:13.125Z,31.40
2023-06-21T09:48:41.530Z,32.00
2023-06-21T09:51:12.009Z,32.50
2023-06-21T09:53:42.867Z,32.80
2023-06-21T09:56:10.387Z,33.00
2023-06-21T09:58:41.692Z,33.00
2023-06-21T10:01:09.171Z,33.20
2023-06-21T10:03:36.620Z,32.50
2023-06-21T10:06:04.619Z,32.10
2023-06-21T10:08:37.222Z,32.20
2023-06-21T10:11:04.824Z,32.60
2023-06-21T10:13:38.665Z,32.30
2023-06-21T10:16:06.240Z,31.20
2023-06-21T10:18:35.309Z,31.00
2023-06-21T10:21:04.975Z,30.60
2023-06-21T10:23:35.569Z,30.80
2023-06-21T10:26:06.415Z,30.50
2023-06-21T10:28:38.094Z,30.10
2023-06-21T10:31:05.718Z,29.70
2023-06-21T10:33:35.355Z,29.50
2023-06-21T10:36:04.444Z,29.50
2023-06-21T10:38:49.195Z,29.30
2023-06-21T10:41:16.731Z,29.10
2023-06-21T10:43:45.938Z,28.80
2023-06-21T10:46:13.800Z,28.60
2023-06-21T10:48:41.661Z,27.80
2023-06-21T10:51:11.354Z,26.20
2023-06-21T10:53:39.745Z,24.90
2023-06-21T10:56:06.838Z,24.00
2023-06-21T10:58:33.840Z,23.50
2023-06-21T11:01:01.701Z,23.50
2023-06-21T11:03:29.038Z,23.50
2023-06-21T11:06:40.011Z,23.40
2023-06-21T11:09:13.764Z,23.60
2023-06-21T11:11:53.743Z,23.90
2023-06-21T11:14:31.554Z,24.20
2023-06-21T11:17:16.292Z,24.40
2023-06-21T11:19:48.641Z,24.70
2023-06-21T11:22:18.357Z,25.00
2023-06-21T11:24:58.866Z,25.10
2023-06-21T11:27:26.842Z,25.80
2023-06-21T11:30:04.880Z,25.90
2023-06-21T11:32:31.903Z,26.20
2023-06-21T11:35:01.773Z,25.80
2023-06-21T11:37:46.086Z,26.00
2023-06-21T11:40:16.605Z,26.40
2023-06-21T11:42:46.999Z,26.40
2023-06-21T11:45:21.030Z,26.30
2023-06-21T11:48:09.787Z,26.40
2023-06-21T11:50:42.308Z,26.50
2023-06-21T11:53:31.577Z,26.70
2023-06-21T11:56:03.307Z,26.20
2023-06-21T11:58:30.562Z,25.20
2023-06-21T12:00:58.227Z,25.50
2023-06-21T12:03:28.769Z,25.20
2023-06-21T12:05:58.319Z,25.30
2023-06-21T12:08:28.876Z,25.30
2023-06-21T12:11:08.617Z,25.60
2023-06-21T12:13:37.131Z,25.60
2023-06-21T12:16:06.937Z,26.00
2023-06-21T12:18:37.384Z,26.70
2023-06-21T12:21:08.257Z,27.00
2023-06-21T12:23:35.322Z,26.80
2023-06-21T12:26:07.325Z,26.60
2023-06-21T12:28:35.729Z,26.60
2023-06-21T12:31:04.832Z,27.10
2023-06-21T12:33:37.222Z,27.80
2023-06-21T12:36:25.174Z,28.60
2023-06-21T12:39:04.321Z,28.60
2023-06-21T12:41:33.629Z,28.80
2023-06-21T12:44:27.140Z,29.20
2023-06-21T12:46:55.008Z,29.40
2023-06-21T12:49:21.970Z,30.00
2023-06-21T12:51:49.419Z,30.20
2023-06-21T12:54:20.966Z,30.60
2023-06-21T12:56:59.833Z,30.00
2023-06-21T12:59:28.090Z,29.70
2023-06-21T13:01:57.207Z,30.10
2023-06-21T13:04:24.485Z,30.50
2023-06-21T13:06:51.634Z,30.90
2023-06-21T13:09:18.759Z,30.70
2023-06-21T13:11:46.967Z,31.20
2023-06-21T13:14:13.948Z,31.10
2023-06-21T13:16:40.826Z,31.60
2023-06-21T13:19:08.464Z,31.60
2023-06-21T13:21:35.572Z,31.80
2023-06-21T13:24:04.008Z,31.90
2023-06-21T13:26:31.062Z,31.70
2023-06-21T13:28:58.050Z,31.60
2023-06-21T13:31:25.622Z,31.10
2023-06-21T13:33:54.430Z,30.30
2023-06-21T13:36:21.599Z,30.00
2023-06-21T13:38:48.491Z,29.90
2023-06-21T13:41:15.402Z,30.00
2023-06-21T13:43:42.376Z,30.30
2023-06-21T13:46:09.394Z,30.50
2023-06-21T13:48:36.465Z,29.80
2023-06-21T13:51:03.569Z,30.00
2023-06-21T13:53:30.527Z,30.00
2023-06-21T13:55:58.205Z,29.70
2023-06-21T13:58:26.837Z,29.30
2023-06-21T14:00:53.892Z,29.30
2023-06-21T14:03:20.956Z,30.00
2023-06-21T14:05:47.997Z,30.30
2023-06-21T14:08:14.877Z,30.30
2023-06-21T14:10:41.783Z,29.90
2023-06-21T14:13:08.679Z,29.90
2023-06-21T14:15:35.676Z,30.00
2023-06-21T14:18:04.555Z,30.30
2023-06-21T14:20:32.267Z,30.20
2023-06-21T14:22:59.724Z,30.30
2023-06-21T14:25:26.731Z,30.70
2023-06-21T14:27:53.669Z,30.90
2023-06-21T14:30:21.268Z,30.90
2023-06-21T14:32:48.639Z,30.90
2023-06-21T14:35:15.972Z,30.80
2023-06-21T14:37:45.052Z,30.60
2023-06-21T14:40:12.468Z,30.40
2023-06-21T14:42:39.570Z,30.80
2023-06-21T14:45:07.027Z,30.90
2023-06-21T14:47:33.983Z,30.70
2023-06-21T14:50:04.106Z,30.60
2023-06-21T14:52:32.634Z,30.50
2023-06-21T14:54:59.661Z,30.40
2023-06-21T14:57:26.577Z,30.70
2023-06-21T14:59:53.637Z,30.90
2023-06-21T15:02:20.672Z,31.10
2023-06-21T15:04:47.634Z,31.40
2023-06-21T15:07:19.130Z,31.60
2023-06-21T15:09:47.160Z,31.50
2023-06-21T15:12:14.387Z,30.60
2023-06-21T15:14:41.471Z,30.60
2023-06-21T15:17:08.549Z,30.60
2023-06-21T15:19:35.536Z,30.50
2023-06-21T15:22:02.615Z,29.90
2023-06-21T15:24:29.462Z,29.70
2023-06-21T15:26:56.361Z,29.50
2023-06-21T15:29:23.342Z,29.80
2023-06-21T15:31:50.249Z,30.50
2023-06-21T15:34:17.227Z,30.20
2023-06-21T15:36:45.014Z,29.80
2023-06-21T15:39:12.143Z,30.10
2023-06-21T15:41:39.557Z,29.90
2023-06-21T15:44:06.799Z,30.20
2023-06-21T15:46:34.401Z,30.50
2023-06-21T15:49:01.985Z,30.70
2023-06-21T15:51:29.179Z,30.50
2023-06-21T15:53:57.238Z,30.70
2023-06-21T15:56:26.114Z,30.90
2023-06-21T15:58:53.899Z,30.60
2023-06-21T16:01:22.089Z,30.90
2023-06-21T16:03:50.493Z,31.50
2023-06-21T16:06:19.712Z,31.40
2023-06-21T16:08:47.517Z,30.60
2023-06-21T16:11:15.268Z,30.50
2023-06-21T16:16:14.232Z,30.10
2023-06-21T16:18:41.519Z,30.00
2023-06-21T16:21:08.646Z,30.20
2023-06-21T16:23:35.654Z,30.40
2023-06-21T16:26:02.946Z,30.70
2023-06-21T16:28:29.971Z,30.20
2023-06-21T16:30:56.948Z,30.30
2023-06-21T16:33:23.856Z,29.80
2023-06-21T16:35:50.921Z,29.80
2023-06-21T16:38:19.791Z,29.60
2023-06-21T16:40:47.171Z,29.60
2023-06-21T16:43:14.860Z,29.20
2023-06-21T16:45:41.826Z,28.80
2023-06-21T16:48:08.887Z,28.60
2023-06-21T16:50:35.998Z,28.50
2023-06-21T16:53:03.266Z,28.40
2023-06-21T16:55:30.768Z,28.30
2023-06-21T16:57:58.116Z,28.30
2023-06-21T17:00:25.139Z,28.20
2023-06-21T17:02:54.457Z,28.10
2023-06-21T17:05:25.641Z,27.90
2023-06-21T17:07:53.293Z,27.80
2023-06-21T17:10:22.015Z,28.00
2023-06-21T17:12:49.325Z,27.90
2023-06-21T17:15:16.368Z,27.60
2023-06-21T17:17:44.622Z,27.70
2023-06-21T17:20:12.237Z,27.80
2023-06-21T17:22:39.335Z,28.00
2023-06-21T17:25:07.034Z,28.10
2023-06-21T17:27:34.026Z,28.00
2023-06-21T17:30:01.280Z,27.90
2023-06-21T17:32:28.353Z,27.90
2023-06-21T17:34:55.354Z,27.90
2023-06-21T17:37:22.414Z,27.90
2023-06-21T17:39:49.375Z,27.90
2023-06-21T17:42:16.491Z,27.90
2023-06-21T17:44:43.744Z,27.90
2023-06-21T17:47:11.665Z,27.80
2023-06-21T17:49:38.709Z,27.70
2023-06-21T17:52:06.203Z,27.60
2023-06-21T17:54:33.609Z,27.50
2023-06-21T17:57:00.768Z,27.40
2023-06-21T17:59:27.681Z,27.30
2023-06-21T18:01:55.609Z,27.20
2023-06-21T18:04:22.740Z,27.20
2023-06-21T18:06:49.856Z,27.10
2023-06-21T18:09:16.828Z,27.00
2023-06-21T18:11:44.567Z,26.90
2023-06-21T18:14:11.603Z,26.90
2023-06-21T18:16:40.730Z,26.70
2023-06-21T18:19:07.642Z,26.60
2023-06-21T18:21:34.605Z,26.30
2023-06-21T18:24:13.433Z,26.10
2023-06-21T18:26:40.379Z,25.90
2023-06-21T18:29:07.267Z,25.90
2023-06-21T18:31:34.187Z,25.90
2023-06-21T18:34:01.415Z,25.90
2023-06-21T18:36:28.471Z,25.80
2023-06-21T18:38:56.220Z,25.60
2023-06-21T18:41:23.328Z,25.30
2023-06-21T18:43:50.935Z,25.10
2023-06-21T18:46:17.965Z,25.00
2023-06-21T18:48:50.045Z,25.00
2023-06-21T18:51:17.100Z,25.00
2023-06-21T18:53:44.021Z,25.00
2023-06-21T18:56:10.991Z,25.00
2023-06-21T18:58:38.561Z,25.00
2023-06-21T19:01:05.557Z,24.90
2023-06-21T19:03:32.584Z,24.90
2023-06-21T19:05:59.617Z,24.80
2023-06-21T19:08:26.567Z,24.70
2023-06-21T19:10:53.489Z,24.60
2023-06-21T19:13:20.529Z,24.40
2023-06-21T19:15:47.384Z,24.30
2023-06-21T19:18:14.449Z,24.20
2023-06-21T19:20:41.356Z,24.10
2023-06-21T19:23:08.237Z,24.00
2023-06-21T19:25:35.189Z,23.90
2023-06-21T19:28:02.080Z,23.80
2023-06-21T19:30:29.271Z,23.70
2023-06-21T19:32:56.562Z,23.60
2023-06-21T19:35:23.519Z,23.50
2023-06-21T19:37:50.437Z,23.40
2023-06-21T19:40:17.457Z,23.30
2023-06-21T19:42:47.526Z,23.20
2023-06-21T19:45:15.084Z,23.10
2023-06-21T19:47:42.549Z,23.00
2023-06-21T19:50:10.488Z,23.00
2023-06-21T19:52:37.528Z,22.90
2023-06-21T19:55:04.985Z,22.80
2023-06-21T19:57:32.327Z,22.70
2023-06-21T19:59:59.646Z,22.60
2023-06-21T20:02:26.744Z,22.60
2023-06-21T20:04:57.298Z,22.50
2023-06-21T20:07:24.907Z,22.50
2023-06-21T20:09:53.300Z,22.40
2023-06-21T20:12:20.194Z,22.40
2023-06-21T20:14:47.201Z,22.30
2023-06-21T20:17:14.126Z,22.30
2023-06-21T20:19:41.097Z,22.20
2023-06-21T20:22:08.001Z,22.10
2023-06-21T20:24:34.940Z,22.10
2023-06-21T20:27:01.914Z,22.00
2023-06-21T20:29:28.798Z,21.90
2023-06-21T20:31:55.703Z,21.90
2023-06-21T20:34:23.366Z,21.90
2023-06-21T20:36:50.321Z,21.90
2023-06-21T20:39:18.676Z,21.90
2023-06-21T20:41:47.047Z,21.90
2023-06-21T20:44:16.337Z,21.80
2023-06-21T20:46:45.918Z,21.70
2023-06-21T20:49:13.242Z,21.70
2023-06-21T20:51:40.660Z,21.60
2023-06-21T20:54:12.313Z,21.50
2023-06-21T20:56:40.525Z,21.50
2023-06-21T20:59:07.959Z,21.50
2023-06-21T21:01:39.528Z,21.50
2023-06-21T21:04:08.441Z,21.50
2023-06-21T21:06:36.596Z,21.40
2023-06-21T21:09:04.152Z,21.30
2023-06-21T21:11:31.196Z,21.30
2023-06-21T21:14:01.300Z,21.20
2023-06-21T21:16:28.387Z,21.20
2023-06-21T21:18:55.415Z,21.10
2023-06-21T21:21:22.789Z,21.10
2023-06-21T21:23:51.540Z,21.10
2023-06-21T21:26:18.575Z,21.10
2023-06-21T21:28:45.447Z,21.10
2023-06-21T21:31:12.417Z,21.10
2023-06-21T21:33:39.271Z,21.10
2023-06-21T21:36:06.806Z,21.00
2023-06-21T21:38:33.761Z,21.00
2023-06-21T21:41:00.685Z,21.00
2023-06-21T21:43:27.564Z,21.00
2023-06-21T21:45:54.460Z,21.00
2023-06-21T21:48:21.403Z,20.90
2023-06-21T21:50:48.366Z,20.90
2023-06-21T21:53:15.616Z,20.90
2023-06-21T21:55:43.291Z,20.90
2023-06-21T21:58:11.775Z,20.90
2023-06-21T22:00:38.653Z,20.90
2023-06-21T22:03:05.652Z,20.80
2023-06-21T22:05:32.734Z,20.80
2023-06-21T22:07:59.640Z,20.90
2023-06-21T22:10:37.684Z,21.00
2023-06-21T22:13:05.869Z,21.00
2023-06-21T22:15:32.808Z,21.00
2023-06-21T22:18:01.229Z,21.00
2023-06-21T22:20:30.560Z,21.10
2023-06-21T22:22:57.871Z,21.10
2023-06-21T22:25:24.783Z,21.00
2023-06-21T22:27:51.664Z,21.00
2023-06-21T22:30:18.883Z,21.00
2023-06-21T22:32:45.915Z,20.90
2023-06-21T22:35:12.823Z,20.90
2023-06-21T22:37:39.954Z,20.90
2023-06-21T22:40:08.263Z,20.80
2023-06-21T22:42:35.474Z,20.80
2023-06-21T22:45:02.474Z,20.80
2023-06-21T22:47:29.408Z,20.70
2023-06-21T22:49:56.898Z,20.70
2023-06-21T22:52:24.764Z,20.70
2023-06-21T22:54:51.876Z,20.80
2023-06-21T22:57:18.923Z,20.80
2023-06-21T22:59:46.000Z,20.80
2023-06-21T23:02:13.005Z,20.70
2023-06-21T23:04:40.320Z,20.60
2023-06-21T23:07:07.622Z,20.60
2023-06-21T23:09:34.553Z,20.60
2023-06-21T23:12:01.407Z,20.60
2023-06-21T23:14:29.106Z,20.60
2023-06-21T23:16:56.764Z,20.60
2023-06-21T23:19:24.096Z,20.60
2023-06-21T23:21:52.131Z,20.60
2023-06-21T23:24:19.049Z,20.60
2023-06-21T23:26:49.676Z,20.60
2023-06-21T23:29:16.823Z,20.50
2023-06-21T23:31:43.888Z,20.50
2023-06-21T23:34:12.503Z,20.40
2023-06-21T23:36:41.775Z,20.30
2023-06-21T23:39:09.772Z,20.30
2023-06-21T23:41:37.812Z,20.20
2023-06-21T23:44:06.247Z,20.10
2023-06-21T23:46:34.052Z,20.10
2023-06-21T23:49:03.297Z,20.00
2023-06-21T23:51:34.434Z,20.00
2023-06-21T23:54:01.331Z,20.00
2023-06-21T23:56:28.801Z,20.00
2023-06-21T23:58:55.930Z,20.00
